NCAR-RAP Real-Time Weather Data

Output produced by METARs form (10 April 2020  05:45 UTC)
found at http://weather.rap.ucar.edu/surface/
 
KTOL 100452Z 28011KT 10SM CLR 03/M05 A2973 RMK AO2 SLP072 T00281050 401170028 $